Time;durP1;ratioP1;P1;durP2;ratioP2;P2;SDS_P1;SDS_P2;PMS_P1;PMS_P2;Temp;Humidity;BMP_temperature;BMP_pressure;BME280_temperature;BME280_humidity;BME280_pressure;Samples;Min_cycle;Max_cycle;Signal;HPM_P1;HPM_P2
2022/01/17 00:00:21;;;;;;;35.70;21.15;;;;;;;4.86;100.00;101098.88;5050516;28;20055;-65
2022/01/17 00:02:50;;;;;;;37.40;21.30;;;;;;;4.77;100.00;101097.41;5051511;28;20659;-64
2022/01/17 00:05:18;;;;;;;33.55;20.48;;;;;;;4.78;100.00;101101.72;5039837;28;20491;-65
2022/01/17 00:07:45;;;;;;;30.65;19.15;;;;;;;4.83;100.00;101085.94;5038844;28;20420;-65
2022/01/17 00:10:12;;;;;;;36.05;20.83;;;;;;;4.77;100.00;101113.06;5048020;28;20132;-64
2022/01/17 00:12:44;;;;;;;37.55;21.10;;;;;;;4.76;100.00;101092.22;5034078;28;20413;-64
2022/01/17 00:15:25;;;;;;;35.10;21.10;;;;;;;4.77;100.00;101084.38;5039892;28;20049;-65
2022/01/17 00:18:19;;;;;;;40.72;19.25;;;;;;;4.78;100.00;101099.13;5032849;28;20063;-66
2022/01/17 00:20:44;;;;;;;31.80;18.83;;;;;;;4.78;100.00;101091.28;5041422;28;20458;-65
2022/01/17 00:23:12;;;;;;;35.25;18.25;;;;;;;4.77;100.00;101091.31;5045174;28;20045;-66
2022/01/17 00:25:39;;;;;;;30.52;17.17;;;;;;;4.80;100.00;101092.09;5045421;28;20072;-65
2022/01/17 00:28:06;;;;;;;31.17;18.05;;;;;;;4.85;100.00;101078.06;5043308;28;20048;-69
2022/01/17 00:30:33;;;;;;;28.25;15.13;;;;;;;4.85;100.00;101078.06;5028965;28;20131;-64
2022/01/17 00:33:01;;;;;;;27.75;16.38;;;;;;;4.85;100.00;101086.75;5042846;28;20156;-65
2022/01/17 00:35:28;;;;;;;32.85;16.80;;;;;;;4.86;100.00;101067.56;5038397;28;20071;-64
2022/01/17 00:37:55;;;;;;;31.92;14.68;;;;;;;4.86;100.00;101069.34;5034857;28;20085;-64
2022/01/17 00:40:22;;;;;;;26.67;15.20;;;;;;;4.93;100.00;101083.94;5034218;28;20528;-65
2022/01/17 00:42:50;;;;;;;30.35;13.77;;;;;;;4.97;100.00;101081.19;5045357;28;20044;-65
2022/01/17 00:45:19;;;;;;;24.38;13.18;;;;;;;5.01;100.00;101087.19;5043991;28;20045;-66
2022/01/17 00:47:50;;;;;;;25.65;12.93;;;;;;;5.01;100.00;101071.53;5040434;28;20049;-65
2022/01/17 00:50:17;;;;;;;22.83;11.73;;;;;;;5.01;100.00;101074.97;5049941;28;20140;-65
2022/01/17 00:52:44;;;;;;;25.38;12.82;;;;;;;4.97;100.00;101069.91;5066109;28;20055;-66
2022/01/17 00:55:11;;;;;;;24.33;12.05;;;;;;;5.07;100.00;101056.53;5021890;28;20080;-65
2022/01/17 00:57:38;;;;;;;23.88;12.05;;;;;;;5.06;100.00;101049.59;5044265;28;20053;-65
2022/01/17 01:00:07;;;;;;;28.42;13.88;;;;;;;5.08;100.00;101049.56;5044017;28;20585;-64
2022/01/17 01:02:34;;;;;;;28.40;12.82;;;;;;;5.03;100.00;101057.50;5040821;28;20132;-64
2022/01/17 01:05:04;;;;;;;26.23;12.35;;;;;;;5.05;100.00;101055.72;5024391;28;20132;-64
2022/01/17 01:07:31;;;;;;;22.25;12.00;;;;;;;5.14;100.00;101036.34;5038988;28;21674;-64
2022/01/17 01:10:10;;;;;;;25.67;12.07;;;;;;;5.11;100.00;101032.97;5049653;28;20052;-65
2022/01/17 01:12:39;;;;;;;28.00;10.95;;;;;;;5.15;100.00;101035.44;5037448;28;20091;-64
2022/01/17 01:15:12;;;;;;;27.48;12.38;;;;;;;5.23;100.00;101046.50;5041601;28;20139;-64
2022/01/17 01:20:30;;;;;;;22.25;11.23;;;;;;;5.17;100.00;101048.44;5024400;28;20131;-65
2022/01/17 01:28:30;;;;;;;20.20;10.93;;;;;;;5.22;100.00;101043.91;5045605;28;20059;-63
2022/01/17 01:30:59;;;;;;;16.73;9.25;;;;;;;5.28;100.00;101046.38;5040219;28;20128;-63
2022/01/17 01:33:31;;;;;;;22.02;9.90;;;;;;;5.25;100.00;101041.22;5040828;28;20045;-64
2022/01/17 01:36:10;;;;;;;19.65;9.23;;;;;;;5.31;100.00;101035.81;5044431;28;20135;-64
2022/01/17 01:38:39;;;;;;;20.55;8.45;;;;;;;5.32;100.00;101037.53;5048554;28;20049;-64
2022/01/17 01:41:07;;;;;;;21.80;8.48;;;;;;;5.34;100.00;101047.03;5048656;28;20052;-64
2022/01/17 01:43:44;;;;;;;14.38;7.05;;;;;;;5.33;100.00;101039.25;5040978;28;20055;-63
2022/01/17 01:46:17;;;;;;;17.60;9.02;;;;;;;5.30;100.00;101045.41;5003895;28;20493;-61
2022/01/17 01:48:44;;;;;;;17.70;8.23;;;;;;;5.28;100.00;101035.94;5000692;28;20057;-61
2022/01/17 01:51:11;;;;;;;19.55;7.63;;;;;;;5.24;100.00;101061.25;5008523;28;20060;-62
2022/01/17 01:53:38;;;;;;;16.40;6.80;;;;;;;5.23;100.00;101054.34;5004183;28;20061;-61
2022/01/17 01:56:05;;;;;;;21.17;5.68;;;;;;;5.18;100.00;101060.56;5008118;28;20042;-62
2022/01/17 01:58:32;;;;;;;11.32;3.97;;;;;;;5.20;100.00;101054.41;5019777;28;20070;-62
2022/01/17 02:01:01;;;;;;;7.50;3.33;;;;;;;5.21;100.00;101048.28;5013190;28;20136;-62
2022/01/17 02:03:28;;;;;;;13.95;4.60;;;;;;;5.21;100.00;101057.88;5010699;28;20054;-60
2022/01/17 02:05:55;;;;;;;9.13;2.88;;;;;;;5.12;100.00;101071.19;5012671;28;20046;-61
2022/01/17 02:08:22;;;;;;;9.60;2.80;;;;;;;5.08;100.00;101060.00;5015532;28;20128;-60
2022/01/17 02:10:49;;;;;;;12.75;2.50;;;;;;;5.03;100.00;101088.81;5009077;28;20049;-62
2022/01/17 02:13:17;;;;;;;9.15;2.20;;;;;;;4.93;100.00;101068.28;5012641;28;20057;-61
2022/01/17 02:15:46;;;;;;;14.90;2.10;;;;;;;4.77;100.00;101058.28;5007695;28;20042;-61
2022/01/17 02:18:22;;;;;;;10.68;1.92;;;;;;;4.64;100.00;101064.72;5013739;28;20058;-62
2022/01/17 02:21:10;;;;;;;11.55;2.33;;;;;;;4.56;100.00;101051.03;5007951;28;20058;-60
2022/01/17 02:23:36;;;;;;;7.85;1.60;;;;;;;4.57;100.00;101031.88;5008011;28;20050;-61
2022/01/17 02:26:03;;;;;;;14.60;1.80;;;;;;;4.54;100.00;101011.97;5009049;28;20058;-60
2022/01/17 02:28:33;;;;;;;9.82;1.88;;;;;;;4.58;100.00;101005.75;5009529;28;20128;-61
2022/01/17 02:31:01;;;;;;;10.57;1.88;;;;;;;4.57;98.24;101001.44;5019903;28;20132;-61
2022/01/17 02:33:28;;;;;;;11.25;1.40;;;;;;;4.63;97.19;100991.75;5013084;28;20513;-60
2022/01/17 02:35:55;;;;;;;15.38;2.45;;;;;;;4.61;97.61;100972.69;5001984;28;20049;-60
2022/01/17 02:38:23;;;;;;;6.35;1.60;;;;;;;4.66;95.86;100955.16;5010109;28;20060;-61
2022/01/17 02:40:51;;;;;;;9.48;1.83;;;;;;;4.70;94.57;100962.00;5011701;28;20052;-61
2022/01/17 02:43:20;;;;;;;10.57;1.98;;;;;;;4.76;93.72;100967.03;5013734;28;20129;-59
2022/01/17 02:48:21;;;;;;;18.30;2.92;;;;;;;4.84;93.70;100957.22;5013251;28;20054;-60
2022/01/17 02:50:48;;;;;;;11.73;2.15;;;;;;;4.83;93.36;100908.56;5016513;28;20617;-61
2022/01/17 02:53:16;;;;;;;6.45;1.45;;;;;;;4.86;92.29;100941.50;5007457;28;20087;-61
2022/01/17 02:55:51;;;;;;;15.13;1.60;;;;;;;4.88;91.95;100919.72;5003219;28;20060;-59
2022/01/17 02:58:20;;;;;;;14.98;1.88;;;;;;;4.95;92.48;100931.66;5004743;28;20133;-60
2022/01/17 03:00:48;;;;;;;9.75;2.80;;;;;;;4.91;91.39;100939.63;5006116;28;20057;-61
2022/01/17 03:03:16;;;;;;;10.90;1.90;;;;;;;4.94;89.99;100927.34;5000652;28;20061;-60
2022/01/17 03:05:44;;;;;;;9.02;1.33;;;;;;;4.93;90.65;100936.06;5006050;28;20046;-60
2022/01/17 03:08:11;;;;;;;11.27;1.70;;;;;;;5.00;89.79;100913.28;5006011;28;20042;-61
2022/01/17 03:10:43;;;;;;;15.90;2.47;;;;;;;4.98;89.77;100917.66;5005712;28;20573;-62
2022/01/17 03:13:14;;;;;;;13.10;1.77;;;;;;;4.93;89.61;100909.13;5008203;28;20531;-62
2022/01/17 03:15:42;;;;;;;13.95;1.98;;;;;;;5.01;89.03;100908.00;5012220;28;20053;-60
2022/01/17 03:18:09;;;;;;;9.48;1.95;;;;;;;5.04;89.11;100920.06;5015753;28;20053;-60
2022/01/17 03:20:37;;;;;;;12.57;2.47;;;;;;;5.02;89.19;100945.38;5004734;28;20057;-61
2022/01/17 03:23:07;;;;;;;21.70;2.40;;;;;;;5.02;89.20;100927.09;5003262;28;20409;-59
2022/01/17 03:25:35;;;;;;;8.57;1.80;;;;;;;5.02;89.29;100925.34;4989346;28;20133;-61
2022/01/17 03:28:03;;;;;;;11.85;1.75;;;;;;;4.96;89.34;100915.13;5008345;28;20053;-60
2022/01/17 03:30:33;;;;;;;10.52;1.80;;;;;;;5.00;89.46;100923.72;5003819;28;20045;-61
2022/01/17 03:33:09;;;;;;;8.02;2.00;;;;;;;4.97;88.91;100918.56;5006529;28;20056;-61
2022/01/17 03:35:38;;;;;;;10.02;1.90;;;;;;;4.93;89.75;100888.25;5016565;28;20072;-61
2022/01/17 03:38:07;;;;;;;16.45;2.40;;;;;;;4.93;89.17;100899.53;5004807;28;20057;-60
2022/01/17 03:40:39;;;;;;;16.02;2.70;;;;;;;4.92;89.10;100903.06;4998654;28;20560;-60
2022/01/17 03:43:06;;;;;;;16.80;2.72;;;;;;;4.95;88.94;100909.94;5010764;28;20045;-59
2022/01/17 03:45:33;;;;;;;11.20;2.38;;;;;;;4.98;88.65;100909.84;5004226;28;20050;-60
2022/01/17 03:48:01;;;;;;;18.15;2.60;;;;;;;4.92;88.67;100913.50;5005272;28;20527;-58
2022/01/17 03:50:28;;;;;;;12.43;2.80;;;;;;;4.91;89.66;100908.31;5016300;28;20055;-59
2022/01/17 03:52:55;;;;;;;17.35;2.67;;;;;;;4.86;88.94;100903.22;5016467;28;20060;-60
2022/01/17 03:55:23;;;;;;;9.98;2.05;;;;;;;4.91;89.16;100880.50;5012049;28;20058;-61
2022/01/17 03:57:51;;;;;;;18.98;2.80;;;;;;;4.89;89.28;100879.66;5004662;28;20058;-60
2022/01/17 04:00:26;;;;;;;16.63;2.67;;;;;;;4.97;88.82;100889.88;5007374;28;20595;-61
2022/01/17 04:02:54;;;;;;;12.93;2.40;;;;;;;4.95;89.23;100915.13;5013796;28;20049;-62
2022/01/17 04:05:21;;;;;;;11.18;1.77;;;;;;;4.95;89.74;100895.13;5008307;28;20212;-61
2022/01/17 04:07:49;;;;;;;16.63;2.38;;;;;;;4.94;89.05;100929.94;5011233;28;20103;-61
2022/01/17 04:10:16;;;;;;;9.70;1.95;;;;;;;4.97;89.10;100913.34;4995426;28;20054;-62
2022/01/17 04:12:45;;;;;;;12.55;2.10;;;;;;;4.98;89.41;100939.38;5017833;28;20046;-63
2022/01/17 04:15:12;;;;;;;14.57;1.90;;;;;;;4.95;89.26;100902.94;5006133;28;20054;-61
2022/01/17 04:17:41;;;;;;;13.73;2.03;;;;;;;4.97;89.23;100913.34;5004433;28;20061;-61
2022/01/17 04:20:14;;;;;;;12.32;2.00;;;;;;;4.94;89.80;100906.47;5011784;28;20056;-60
2022/01/17 04:22:50;;;;;;;21.40;2.85;;;;;;;4.95;90.49;100916.00;5009226;28;20080;-62
2022/01/17 04:25:18;;;;;;;14.40;2.00;;;;;;;4.98;90.45;100918.50;5017580;28;20136;-59
2022/01/17 04:27:45;;;;;;;16.75;2.55;;;;;;;5.00;90.67;100911.50;5013835;28;20124;-58
2022/01/17 04:30:16;;;;;;;12.95;1.75;;;;;;;4.96;91.30;100919.47;5010629;28;20097;-60
2022/01/17 04:32:43;;;;;;;20.60;2.30;;;;;;;4.93;91.58;100914.34;5018165;28;20069;-60
2022/01/17 04:35:12;;;;;;;14.35;2.55;;;;;;;4.91;92.86;100900.47;5009182;28;20054;-59
2022/01/17 04:37:40;;;;;;;16.58;2.65;;;;;;;4.95;92.89;100884.69;5009262;28;20050;-59
2022/01/17 04:40:08;;;;;;;25.27;3.05;;;;;;;4.92;93.42;100883.94;4995904;28;20502;-59
2022/01/17 04:42:43;;;;;;;15.55;1.90;;;;;;;4.86;93.76;100890.19;5021817;28;20077;-58
2022/01/17 04:45:18;;;;;;;14.98;2.80;;;;;;;4.92;94.48;100871.75;5011477;28;20347;-59
2022/01/17 04:47:49;;;;;;;;;;;;;;;4.92;94.60;100874.38;5016238;28;20130;-58
2022/01/17 04:50:25;;;;;;;12.20;2.22;;;;;;;4.89;95.31;100884.88;5009803;28;19925;-58
2022/01/17 04:52:55;;;;;;;17.38;1.90;;;;;;;4.83;95.42;100887.69;5009858;28;20091;-59
2022/01/17 04:55:23;;;;;;;14.20;2.20;;;;;;;4.86;96.39;100892.81;5015102;28;20061;-60
2022/01/17 04:57:50;;;;;;;16.00;2.20;;;;;;;4.89;95.89;100863.16;5015871;28;20056;-59
2022/01/17 05:00:18;;;;;;;14.63;2.03;;;;;;;4.87;96.69;100836.28;5013218;28;20160;-59
2022/01/17 05:02:45;;;;;;;23.13;3.08;;;;;;;4.81;97.47;100829.50;5006339;28;20057;-57
2022/01/17 05:05:13;;;;;;;14.55;2.80;;;;;;;4.81;97.35;100845.16;4999258;28;20421;-60
2022/01/17 05:07:41;;;;;;;19.88;3.55;;;;;;;4.81;97.92;100864.25;5009836;28;20050;-60
2022/01/17 05:10:10;;;;;;;14.75;1.73;;;;;;;4.85;98.74;100840.69;5008645;28;20077;-60
2022/01/17 05:12:37;;;;;;;13.38;1.83;;;;;;;4.81;99.19;100858.19;5009493;28;20109;-56
2022/01/17 05:15:10;;;;;;;17.52;2.13;;;;;;;4.85;97.94;100835.47;5008352;28;20506;-60
2022/01/17 05:17:43;;;;;;;25.08;1.90;;;;;;;4.80;98.81;100852.13;5009744;28;20064;-59
2022/01/17 05:20:11;;;;;;;10.57;1.90;;;;;;;4.85;98.54;100869.38;5006500;28;20053;-58
2022/01/17 05:22:40;;;;;;;16.13;2.60;;;;;;;4.83;98.04;100828.56;5003830;28;20072;-59
2022/01/17 05:25:10;;;;;;;17.83;2.70;;;;;;;4.81;98.26;100848.59;5007547;28;20049;-61
2022/01/17 05:27:37;;;;;;;13.30;2.15;;;;;;;4.85;97.81;100828.50;5008199;28;20046;-60
2022/01/17 05:30:06;;;;;;;8.60;1.67;;;;;;;4.87;97.73;100831.94;5009503;28;20059;-58
2022/01/17 05:32:33;;;;;;;10.02;1.98;;;;;;;4.89;97.94;100837.09;5007672;28;20149;-60
2022/01/17 05:35:00;;;;;;;14.45;2.05;;;;;;;4.93;97.82;100818.69;5000823;28;20067;-59
2022/01/17 05:37:27;;;;;;;11.93;2.25;;;;;;;4.90;97.71;100823.13;5012669;28;20052;-61
2022/01/17 05:39:55;;;;;;;9.23;1.98;;;;;;;4.89;98.35;100860.56;5009203;28;20820;-61
2022/01/17 05:42:24;;;;;;;13.70;2.25;;;;;;;4.91;98.55;100843.97;5010528;28;20096;-58
2022/01/17 05:44:52;;;;;;;11.07;1.65;;;;;;;4.98;98.73;100829.81;5007609;28;20052;-61
2022/01/17 05:47:19;;;;;;;12.85;1.95;;;;;;;4.96;98.67;100836.00;5006235;28;20046;-58
2022/01/17 05:49:47;;;;;;;16.25;2.20;;;;;;;4.95;98.71;100816.84;5008309;28;20056;-61
2022/01/17 05:52:14;;;;;;;12.23;2.03;;;;;;;4.90;99.54;100847.47;5004575;28;20054;-61
2022/01/17 05:54:42;;;;;;;13.15;1.92;;;;;;;4.90;99.70;100825.75;5004183;28;20084;-60
2022/01/17 05:57:10;;;;;;;11.80;1.73;;;;;;;4.92;99.12;100848.28;5005696;28;20041;-59
2022/01/17 05:59:37;;;;;;;10.63;2.00;;;;;;;4.97;99.33;100848.13;5007746;28;20514;-59
2022/01/17 06:02:06;;;;;;;10.23;1.58;;;;;;;4.98;99.87;100845.47;5008488;28;20053;-61
2022/01/17 06:04:34;;;;;;;14.45;2.28;;;;;;;5.06;99.81;100838.25;5002730;28;20117;-57
2022/01/17 06:07:02;;;;;;;9.90;1.52;;;;;;;4.97;100.00;100851.59;5018036;28;20041;-61
2022/01/17 06:09:29;;;;;;;10.10;2.08;;;;;;;4.97;100.00;100830.72;5014294;28;20050;-59
2022/01/17 06:11:56;;;;;;;14.45;1.92;;;;;;;4.95;100.00;100819.47;5009071;28;20160;-61
2022/01/17 06:14:24;;;;;;;15.18;2.20;;;;;;;4.99;100.00;100825.44;5009636;28;20050;-60
2022/01/17 06:16:51;;;;;;;14.30;2.45;;;;;;;4.96;100.00;100830.78;5007162;28;20374;-61
2022/01/17 06:19:18;;;;;;;14.60;2.92;;;;;;;4.93;100.00;100800.41;5006432;28;20058;-59
2022/01/17 06:21:45;;;;;;;15.95;1.98;;;;;;;4.90;100.00;100805.72;5003457;28;20054;-57
2022/01/17 06:24:16;;;;;;;13.02;2.03;;;;;;;4.83;100.00;100846.81;5009495;28;20049;-59
2022/01/17 06:26:44;;;;;;;13.75;1.95;;;;;;;4.86;100.00;100842.38;5009492;28;20619;-60
2022/01/17 06:29:13;;;;;;;10.63;2.15;;;;;;;4.76;100.00;100862.69;5005930;28;20180;-61
2022/01/17 06:31:41;;;;;;;17.38;2.45;;;;;;;4.77;100.00;100861.78;5000399;28;20061;-59
2022/01/17 06:34:10;;;;;;;11.65;1.98;;;;;;;4.73;100.00;100847.16;4990765;28;20045;-61
2022/01/17 06:36:41;;;;;;;13.52;2.50;;;;;;;4.74;100.00;100848.88;5006729;28;20050;-60
2022/01/17 06:39:10;;;;;;;7.28;1.70;;;;;;;4.71;100.00;100834.16;5007592;28;20383;-58
2022/01/17 06:41:38;;;;;;;13.15;2.30;;;;;;;4.72;100.00;100801.94;5013042;28;20077;-60
2022/01/17 06:44:06;;;;;;;7.93;1.70;;;;;;;4.64;100.00;100779.63;4993134;28;20060;-59
2022/01/17 06:46:34;;;;;;;9.15;1.50;;;;;;;4.52;100.00;100760.88;5009345;28;20054;-58
2022/01/17 06:49:01;;;;;;;18.33;2.15;;;;;;;4.57;100.00;100756.38;5012227;28;20524;-59
2022/01/17 06:51:28;;;;;;;13.77;2.53;;;;;;;4.50;100.00;100765.31;5005422;28;20537;-62
2022/01/17 06:53:55;;;;;;;11.65;1.90;;;;;;;4.44;100.00;100747.22;5008277;28;20121;-59
2022/01/17 06:56:22;;;;;;;12.88;1.77;;;;;;;4.45;100.00;100758.50;5006246;28;20148;-60
2022/01/17 06:58:50;;;;;;;10.25;1.98;;;;;;;4.39;100.00;100740.47;4988364;28;20564;-61
2022/01/17 07:01:18;;;;;;;11.77;2.10;;;;;;;4.42;100.00;100761.22;5000283;28;20050;-63
2022/01/17 07:03:47;;;;;;;10.70;2.35;;;;;;;4.39;100.00;100772.59;5000832;28;20128;-62
2022/01/17 07:06:15;;;;;;;14.52;2.13;;;;;;;4.39;100.00;100790.84;4989136;28;20053;-61
2022/01/17 07:08:44;;;;;;;7.60;1.77;;;;;;;4.38;100.00;100815.19;5007042;28;20050;-61
2022/01/17 07:11:13;;;;;;;11.82;1.85;;;;;;;4.42;100.00;100831.59;5008401;28;20054;-61
2022/01/17 07:13:40;;;;;;;10.63;1.90;;;;;;;4.37;100.00;100820.44;5005033;28;20057;-60
2022/01/17 07:16:07;;;;;;;8.45;1.95;;;;;;;4.37;100.00;100902.13;5007050;28;20053;-62
2022/01/17 07:18:34;;;;;;;12.88;2.30;;;;;;;4.43;100.00;100804.63;5005509;28;20488;-59
2022/01/17 07:21:02;;;;;;;12.50;3.05;;;;;;;4.44;100.00;100801.13;5003499;28;20049;-62
2022/01/17 07:23:29;;;;;;;14.35;2.08;;;;;;;4.45;100.00;100780.19;5000289;28;20053;-59
2022/01/17 07:25:56;;;;;;;7.45;1.98;;;;;;;4.41;100.00;100801.19;5002343;28;20050;-60
2022/01/17 07:28:27;;;;;;;12.00;2.58;;;;;;;4.43;100.00;100747.28;5005728;28;20501;-60
2022/01/17 07:30:55;;;;;;;13.52;3.28;;;;;;;4.45;100.00;100767.16;4988640;28;20125;-60
2022/01/17 07:33:24;;;;;;;7.13;1.88;;;;;;;4.49;100.00;100763.56;4997520;28;20063;-62
2022/01/17 07:35:51;;;;;;;9.82;1.90;;;;;;;4.49;100.00;100739.25;5005653;28;20056;-61
2022/01/17 07:38:18;;;;;;;11.70;2.20;;;;;;;4.51;100.00;100746.16;5002344;28;20635;-61
2022/01/17 07:40:45;;;;;;;12.35;2.28;;;;;;;4.55;100.00;100757.34;5008611;28;20053;-61
2022/01/17 07:43:12;;;;;;;9.68;2.05;;;;;;;4.65;100.00;100768.31;4984803;28;20536;-60
2022/01/17 07:45:54;;;;;;;15.60;3.55;;;;;;;4.66;100.00;100744.78;4984550;28;20064;-61
2022/01/17 07:51:08;;;;;;;11.82;2.30;;;;;;;4.71;100.00;100747.25;5007921;28;20045;-61
2022/01/17 07:53:35;;;;;;;9.88;1.95;;;;;;;4.72;100.00;100728.94;4999956;28;20050;-61
2022/01/17 07:56:02;;;;;;;13.20;2.13;;;;;;;4.72;100.00;100738.50;5007087;28;20082;-61
2022/01/17 07:58:29;;;;;;;12.50;2.60;;;;;;;4.73;100.00;100742.84;5009540;28;20059;-62
2022/01/17 08:00:56;;;;;;;7.38;1.70;;;;;;;4.74;100.00;100742.78;5005965;28;20075;-60
2022/01/17 08:03:24;;;;;;;15.20;2.53;;;;;;;4.77;100.00;100747.91;5010542;28;20161;-60
2022/01/17 08:05:51;;;;;;;11.93;2.03;;;;;;;4.78;100.00;100762.66;5007009;28;20702;-62
2022/01/17 08:08:18;;;;;;;11.70;2.22;;;;;;;4.80;100.00;100734.75;5006120;28;20057;-61
2022/01/17 08:10:45;;;;;;;12.13;2.45;;;;;;;4.85;100.00;100738.97;5000231;28;20069;-62
2022/01/17 08:13:13;;;;;;;11.10;2.20;;;;;;;4.85;100.00;100739.81;5003784;28;20141;-59
2022/01/17 08:15:40;;;;;;;8.98;1.98;;;;;;;4.81;100.00;100730.38;5008588;28;20259;-61
2022/01/17 08:18:07;;;;;;;9.85;2.15;;;;;;;4.85;100.00;100745.03;5003398;28;20056;-61
2022/01/17 08:20:34;;;;;;;14.98;2.35;;;;;;;4.83;100.00;100721.63;4989121;28;20414;-60
2022/01/17 08:23:01;;;;;;;8.52;2.10;;;;;;;4.78;100.00;100701.81;5006936;28;20526;-59
2022/01/17 08:25:29;;;;;;;10.05;1.95;;;;;;;4.81;100.00;100692.09;5001859;28;20602;-62
2022/01/17 08:27:56;;;;;;;10.05;1.88;;;;;;;4.82;100.00;100680.78;5007692;28;20096;-61
2022/01/17 08:30:23;;;;;;;5.85;1.58;;;;;;;4.89;100.00;100686.63;5004875;28;20062;-59
2022/01/17 08:33:10;;;;;;;8.07;1.30;;;;;;;4.88;100.00;100673.66;5005392;28;20141;-59
2022/01/17 08:35:38;;;;;;;12.15;2.25;;;;;;;4.91;100.00;100682.25;4987919;28;20507;-62
2022/01/17 08:38:05;;;;;;;9.25;2.47;;;;;;;4.92;100.00;100694.38;4973938;28;20041;-58
2022/01/17 08:40:32;;;;;;;5.65;1.60;;;;;;;4.95;100.00;100704.66;5006832;28;20050;-61
2022/01/17 08:42:59;;;;;;;8.43;1.70;;;;;;;5.00;100.00;100718.44;5000317;28;20049;-60
2022/01/17 08:45:28;;;;;;;7.45;1.77;;;;;;;5.00;100.00;100735.84;5008329;28;20659;-61
2022/01/17 08:48:12;;;;;;;8.77;1.75;;;;;;;5.06;100.00;100757.34;5006923;28;20056;-60
2022/01/17 08:50:40;;;;;;;12.07;1.60;;;;;;;5.07;100.00;100771.25;5005872;28;20046;-62
2022/01/17 08:53:13;;;;;;;15.85;2.15;;;;;;;5.04;100.00;100774.84;5006136;28;20145;-62
2022/01/17 08:55:42;;;;;;;7.20;1.65;;;;;;;5.04;100.00;100750.47;4976513;28;20050;-59
2022/01/17 08:58:11;;;;;;;4.80;1.67;;;;;;;5.08;100.00;100739.88;5011674;28;20141;-60
2022/01/17 09:00:38;;;;;;;7.60;1.67;;;;;;;5.08;100.00;100763.34;5016896;28;20071;-62
2022/01/17 09:03:21;;;;;;;10.30;2.10;;;;;;;5.17;100.00;100730.03;5012256;28;20136;-62
2022/01/17 09:05:49;;;;;;;4.13;1.30;;;;;;;5.17;100.00;100717.84;5007707;28;20061;-57
2022/01/17 09:08:18;;;;;;;10.77;1.70;;;;;;;5.24;100.00;100726.31;5001948;28;20056;-59
2022/01/17 09:10:45;;;;;;;8.40;2.13;;;;;;;5.27;100.00;100765.38;5011397;28;20058;-60
2022/01/17 09:13:13;;;;;;;7.50;1.70;;;;;;;5.18;100.00;100742.16;4991030;28;20053;-59
2022/01/17 09:15:40;;;;;;;3.38;1.65;;;;;;;5.18;100.00;100726.50;5011145;28;20145;-60
2022/01/17 09:18:08;;;;;;;5.72;1.50;;;;;;;5.15;100.00;100750.13;5015417;28;20056;-62
2022/01/17 09:20:35;;;;;;;4.43;1.50;;;;;;;5.19;100.00;100756.94;5011314;28;20053;-60
2022/01/17 09:23:03;;;;;;;6.95;1.50;;;;;;;5.20;100.00;100771.69;5007872;28;20045;-60
2022/01/17 09:25:31;;;;;;;6.18;2.00;;;;;;;5.14;100.00;100777.13;4999411;28;20137;-61
2022/01/17 09:27:58;;;;;;;7.60;1.67;;;;;;;5.15;100.00;100778.81;5006234;28;20702;-60
2022/01/17 09:30:26;;;;;;;6.57;1.75;;;;;;;5.12;100.00;100812.84;5034127;22;20583;-75
2022/01/17 09:32:53;;;;;;;5.20;1.52;;;;;;;5.11;100.00;100821.59;5013842;28;20120;-75
2022/01/17 09:35:21;;;;;;;5.03;1.33;;;;;;;5.17;100.00;100797.88;5020694;28;20084;-75
2022/01/17 09:37:50;;;;;;;6.65;1.30;;;;;;;5.25;100.00;100821.97;5017471;28;20045;-75
2022/01/17 09:40:19;;;;;;;7.18;1.58;;;;;;;5.21;100.00;100830.81;4975901;28;20049;-76
2022/01/17 09:42:47;;;;;;;5.72;1.50;;;;;;;5.21;100.00;100836.88;5002044;28;20146;-76
2022/01/17 09:45:17;;;;;;;3.65;1.60;;;;;;;5.26;100.00;100871.50;5000554;28;20050;-76
2022/01/17 09:47:46;;;;;;;6.43;1.40;;;;;;;5.34;100.00;100892.16;5001822;28;20156;-76
2022/01/17 09:50:19;;;;;;;5.13;1.77;;;;;;;5.29;100.00;100910.56;5015561;28;20045;-77
2022/01/17 09:52:50;;;;;;;7.82;1.90;;;;;;;5.30;100.00;100937.53;5035786;28;20046;-76
2022/01/17 09:55:22;;;;;;;8.38;1.67;;;;;;;5.07;100.00;100931.28;5012588;28;20615;-76
2022/01/17 09:58:20;;;;;;;11.35;1.42;;;;;;;5.03;100.00;100924.44;5001819;28;20069;-76
2022/01/17 10:00:48;;;;;;;21.50;1.45;;;;;;;5.00;100.00;100952.41;5007963;28;20045;-75
2022/01/17 10:03:18;;;;;;;10.35;1.60;;;;;;;4.99;100.00;100948.91;4997396;28;20115;-76
2022/01/17 10:05:46;;;;;;;5.60;1.23;;;;;;;5.02;100.00;100941.00;4989743;28;20068;-76
2022/01/17 10:08:17;;;;;;;4.35;1.00;;;;;;;5.00;100.00;100939.38;4999635;28;20053;-76
2022/01/17 10:10:56;;;;;;;6.57;1.02;;;;;;;5.17;100.00;100951.88;5001806;28;20053;-76
2022/01/17 10:13:37;;;;;;;8.32;1.33;;;;;;;5.24;100.00;100956.84;4995599;28;20050;-78
2022/01/17 10:16:21;;;;;;;4.78;1.20;;;;;;;5.23;100.00;100962.97;5028563;28;20298;-77
2022/01/17 10:18:56;;;;;;;10.30;1.20;;;;;;;5.36;100.00;100967.78;5003090;28;20049;-77
2022/01/17 10:21:36;;;;;;;11.93;1.85;;;;;;;5.40;100.00;100965.03;5017448;28;20146;-76
2022/01/17 10:24:29;;;;;;;5.80;1.40;;;;;;;5.51;100.00;100970.78;5015388;28;20068;-77
2022/01/17 10:27:16;;;;;;;8.77;1.17;;;;;;;5.55;100.00;100961.94;4999385;28;20037;-76
2022/01/17 10:30:27;;;;;;;8.88;1.48;;;;;;;5.65;100.00;100965.09;5005845;28;20065;-75
2022/01/17 10:35:38;;;;;;;5.68;1.40;;;;;;;5.76;100.00;100969.97;5000631;28;20099;-76
2022/01/17 10:38:18;;;;;;;11.60;1.80;;;;;;;5.78;100.00;100986.44;4989132;28;20044;-77
2022/01/17 10:40:57;;;;;;;7.80;1.65;;;;;;;5.76;100.00;100996.97;4994121;28;20039;-76
2022/01/17 10:43:28;;;;;;;3.80;1.00;;;;;;;5.83;100.00;101029.81;4980114;28;20087;-75
2022/01/17 10:45:56;;;;;;;7.75;1.67;;;;;;;5.86;100.00;101026.25;4998373;28;20148;-76
2022/01/17 10:48:30;;;;;;;11.35;1.85;;;;;;;5.87;100.00;101038.41;4993149;28;20041;-76
2022/01/17 10:50:59;;;;;;;13.40;1.95;;;;;;;5.72;100.00;101054.56;5000283;28;20072;-76
2022/01/17 10:53:26;;;;;;;10.05;1.95;;;;;;;5.66;100.00;101046.94;5000826;28;20049;-76
2022/01/17 10:55:55;;;;;;;4.85;1.30;;;;;;;5.51;97.38;101049.13;4984290;28;20041;-75
2022/01/17 10:58:29;;;;;;;13.50;1.95;;;;;;;5.53;97.44;101054.28;4980610;28;20123;-76
2022/01/17 11:01:02;;;;;;;9.88;2.08;;;;;;;5.51;95.34;101062.19;4994856;28;20077;-77
2022/01/17 11:03:32;;;;;;;15.52;1.88;;;;;;;5.51;95.57;101070.00;5006000;28;20397;-76
2022/01/17 11:06:06;;;;;;;6.03;1.75;;;;;;;5.50;95.37;101089.19;5005690;28;20065;-76
2022/01/17 11:08:34;;;;;;;5.95;1.40;;;;;;;5.46;95.67;101108.47;4974442;28;20119;-76
2022/01/17 11:11:05;;;;;;;9.23;1.73;;;;;;;5.41;96.72;101099.06;4986689;28;20263;-76
2022/01/17 11:13:35;;;;;;;6.32;1.30;;;;;;;5.11;96.32;101129.53;4995890;28;20481;-75
2022/01/17 11:16:12;;;;;;;6.22;1.63;;;;;;;4.65;95.89;101142.06;4980112;28;20448;-76
2022/01/17 11:18:44;;;;;;;5.22;1.63;;;;;;;4.47;97.49;101173.81;5001275;28;20056;-77
2022/01/17 11:21:14;;;;;;;6.85;1.30;;;;;;;4.27;97.07;101179.50;4990840;28;20072;-75
2022/01/17 11:23:47;;;;;;;4.00;1.05;;;;;;;4.14;96.99;101171.13;5019846;28;20065;-76
2022/01/17 11:26:15;;;;;;;10.20;2.03;;;;;;;4.05;95.68;101184.38;4999471;28;20053;-74
2022/01/17 11:28:44;;;;;;;7.68;1.45;;;;;;;3.86;95.27;101203.91;4991121;28;20049;-75
2022/01/17 11:31:15;;;;;;;9.07;1.83;;;;;;;3.63;97.06;101220.03;4989256;28;21719;-75
2022/01/17 11:33:46;;;;;;;16.48;2.65;;;;;;;3.66;96.75;101239.06;4995484;28;20136;-76
2022/01/17 11:36:15;;;;;;;8.43;1.83;;;;;;;3.59;99.13;101237.44;4971665;28;20069;-75
2022/01/17 11:38:48;;;;;;;11.55;1.83;;;;;;;3.56;99.34;101240.13;4985161;28;20076;-76
2022/01/17 11:41:23;;;;;;;10.63;1.73;;;;;;;3.70;98.49;101243.31;4990419;28;20056;-75
2022/01/17 11:44:05;;;;;;;9.95;1.90;;;;;;;3.87;97.90;101248.16;5008546;28;20547;-75
2022/01/17 11:46:35;;;;;;;12.55;2.70;;;;;;;3.87;97.14;101253.34;5009198;28;20095;-76
2022/01/17 11:49:03;;;;;;;9.68;2.08;;;;;;;3.72;96.82;101236.31;4980373;28;20057;-75